Time;durP1;ratioP1;P1;durP2;ratioP2;P2;SDS_P1;SDS_P2;PMS_P1;PMS_P2;Temp;Humidity;BMP_temperature;BMP_pressure;BME280_temperature;BME280_humidity;BME280_pressure;Samples;Min_cycle;Max_cycle;Signal;HPM_P1;HPM_P2
2022/06/20 00:00:15;;;;;;;3.30;2.03;;;;;;;15.93;100.00;100284.84;5041766;28;20195;-73
2022/06/20 00:02:44;;;;;;;2.00;1.80;;;;;;;15.89;100.00;100286.78;5044796;28;20586;-73
2022/06/20 00:05:14;;;;;;;5.17;2.13;;;;;;;15.80;100.00;100297.81;5044442;28;20691;-74
2022/06/20 00:07:41;;;;;;;4.27;2.10;;;;;;;15.82;100.00;100299.41;5041627;28;20653;-73
2022/06/20 00:10:08;;;;;;;6.10;1.97;;;;;;;15.88;100.00;100308.72;5042333;28;20214;-74
2022/06/20 00:12:34;;;;;;;6.37;2.30;;;;;;;15.78;100.00;100325.94;5045229;28;20234;-73
2022/06/20 00:15:01;;;;;;;5.90;2.30;;;;;;;15.70;100.00;100329.78;5044231;28;20302;-73
2022/06/20 00:17:27;;;;;;;4.97;2.30;;;;;;;15.66;100.00;100322.97;5043753;28;20202;-73
2022/06/20 00:19:54;;;;;;;3.73;2.43;;;;;;;15.60;100.00;100340.84;5044807;28;20197;-73
2022/06/20 00:22:21;;;;;;;6.23;2.30;;;;;;;15.50;100.00;100351.81;5043839;28;20230;-73
2022/06/20 00:24:48;;;;;;;5.77;2.23;;;;;;;15.50;100.00;100354.47;5045939;28;20197;-73
2022/06/20 00:27:14;;;;;;;4.90;2.50;;;;;;;15.41;100.00;100378.56;5046078;28;20232;-73
2022/06/20 00:29:43;;;;;;;7.77;2.83;;;;;;;15.38;100.00;100385.75;5043995;28;20206;-73
2022/06/20 00:32:11;;;;;;;5.87;2.40;;;;;;;15.41;100.00;100388.22;5043287;28;20719;-72
2022/06/20 00:34:38;;;;;;;5.20;2.53;;;;;;;15.39;100.00;100366.44;5044349;28;20215;-72
2022/06/20 00:37:06;;;;;;;4.80;2.57;;;;;;;15.36;100.00;100356.94;5044074;28;20206;-72
2022/06/20 00:39:34;;;;;;;3.40;2.43;;;;;;;15.38;100.00;100341.94;5043655;28;20208;-73
2022/06/20 00:42:02;;;;;;;4.13;2.63;;;;;;;15.47;100.00;100336.22;5044116;28;20220;-73
2022/06/20 00:44:37;;;;;;;4.53;2.63;;;;;;;15.45;100.00;100311.81;5043747;28;20845;-73
2022/06/20 00:47:08;;;;;;;5.37;2.73;;;;;;;15.41;100.00;100278.75;5043096;28;20492;-74
2022/06/20 00:49:40;;;;;;;6.47;2.93;;;;;;;15.37;100.00;100255.34;5042010;28;20195;-73
2022/06/20 00:52:14;;;;;;;3.13;2.57;;;;;;;15.38;100.00;100229.00;5044087;28;20614;-74
2022/06/20 00:54:47;;;;;;;7.10;3.20;;;;;;;15.32;100.00;100184.69;5041425;28;20226;-74
2022/06/20 00:57:19;;;;;;;5.93;3.17;;;;;;;15.37;100.00;100148.47;5043239;28;20526;-73
2022/06/20 00:59:50;;;;;;;7.93;2.97;;;;;;;15.41;100.00;100139.53;5043242;28;20574;-72
2022/06/20 01:02:21;;;;;;;4.40;2.83;;;;;;;15.48;100.00;100147.94;5041882;28;20216;-73
2022/06/20 01:04:54;;;;;;;7.90;3.10;;;;;;;15.50;100.00;100160.03;5044112;28;20618;-72
2022/06/20 01:07:25;;;;;;;6.07;2.90;;;;;;;15.69;100.00;100152.00;5041981;28;20214;-73
2022/06/20 01:09:57;;;;;;;9.50;2.80;;;;;;;15.64;100.00;100148.78;5041862;28;20202;-74
2022/06/20 01:12:26;;;;;;;3.90;2.80;;;;;;;15.68;100.00;100170.47;5041680;28;20219;-73
2022/06/20 01:14:52;;;;;;;4.00;2.90;;;;;;;15.73;100.00;100180.75;5041127;28;20972;-73
2022/06/20 01:17:37;;;;;;;6.97;3.20;;;;;;;15.65;100.00;100181.16;5042853;28;20204;-73
2022/06/20 01:20:06;;;;;;;6.97;3.03;;;;;;;15.55;100.00;100170.31;5044334;28;20217;-73
2022/06/20 01:22:49;;;;;;;5.37;3.10;;;;;;;15.57;100.00;100159.72;5044912;28;20220;-72
2022/06/20 01:25:34;;;;;;;3.57;2.87;;;;;;;15.57;100.00;100149.22;5043028;28;20345;-72
2022/06/20 01:28:04;;;;;;;4.03;2.87;;;;;;;15.61;100.00;100148.09;5044847;28;20571;-73
2022/06/20 01:30:35;;;;;;;3.57;2.93;;;;;;;15.68;100.00;100171.31;5041897;28;20210;-74
2022/06/20 01:33:01;;;;;;;7.67;3.53;;;;;;;15.71;100.00;100171.16;5045049;28;20244;-72
2022/06/20 01:38:16;;;;;;;5.17;2.63;;;;;;;16.04;100.00;100153.63;5038083;28;20784;-72
2022/06/20 01:43:28;;;;;;;6.70;4.00;;;;;;;16.04;100.00;100120.31;5042265;28;20248;-74
2022/06/20 01:46:00;;;;;;;7.77;3.03;;;;;;;16.00;100.00;100105.63;5041905;28;20722;-73
2022/06/20 01:48:30;;;;;;;5.10;3.23;;;;;;;16.01;100.00;100136.25;5041785;28;20237;-74
2022/06/20 01:50:57;;;;;;;4.53;3.47;;;;;;;16.00;100.00;100131.91;5044368;28;20197;-74
2022/06/20 01:53:29;;;;;;;7.97;3.50;;;;;;;15.95;100.00;100167.28;5044700;28;20226;-74
2022/06/20 01:55:56;;;;;;;4.10;3.27;;;;;;;15.99;100.00;100195.09;5044635;28;20216;-73
2022/06/20 01:58:29;;;;;;;7.73;3.10;;;;;;;16.14;100.00;100186.38;5042476;28;20199;-73
2022/06/20 02:00:56;;;;;;;6.13;3.23;;;;;;;16.04;100.00;100216.72;5044048;28;20208;-73
2022/06/20 02:03:23;;;;;;;6.67;3.33;;;;;;;15.98;100.00;100236.31;5044108;28;20746;-73
2022/06/20 02:05:54;;;;;;;4.30;3.00;;;;;;;15.95;100.00;100231.22;5043250;28;20214;-72
2022/06/20 02:08:23;;;;;;;6.67;3.10;;;;;;;15.83;100.00;100260.81;5042769;28;20322;-73
2022/06/20 02:10:53;;;;;;;7.43;3.40;;;;;;;15.73;100.00;100299.03;5043237;28;20412;-73
2022/06/20 02:13:22;;;;;;;5.37;3.40;;;;;;;15.56;100.00;100313.88;5041874;28;20679;-73
2022/06/20 02:15:54;;;;;;;6.43;3.90;;;;;;;15.32;100.00;100364.13;5044770;28;20707;-74
2022/06/20 02:18:21;;;;;;;6.27;3.53;;;;;;;15.28;100.00;100351.22;5043878;28;20214;-73
2022/06/20 02:20:51;;;;;;;7.20;3.63;;;;;;;15.10;100.00;100361.69;5043437;28;20199;-73
2022/06/20 02:23:21;;;;;;;7.17;4.17;;;;;;;15.17;100.00;100301.84;5043071;28;20264;-73
2022/06/20 02:25:49;;;;;;;7.70;4.33;;;;;;;15.06;100.00;100280.56;5044026;28;20556;-73
2022/06/20 02:28:20;;;;;;;10.30;4.77;;;;;;;15.06;100.00;100277.94;5044917;28;20390;-73
2022/06/20 02:30:46;;;;;;;7.03;4.93;;;;;;;14.92;100.00;100260.25;5044896;28;20257;-74
2022/06/20 02:33:18;;;;;;;8.90;4.50;;;;;;;14.94;100.00;100235.59;5044902;28;20232;-73
2022/06/20 02:35:45;;;;;;;8.97;5.10;;;;;;;14.81;100.00;100182.03;5043268;28;20227;-73
2022/06/20 02:38:11;;;;;;;8.37;4.77;;;;;;;14.74;100.00;100175.41;5041777;28;20235;-74
2022/06/20 02:40:41;;;;;;;11.47;5.47;;;;;;;14.77;100.00;100170.00;5043067;28;20206;-73
2022/06/20 02:43:15;;;;;;;7.30;4.93;;;;;;;14.90;100.00;100128.25;5043124;28;20489;-73
2022/06/20 02:45:42;;;;;;;8.27;5.50;;;;;;;14.92;100.00;100115.88;5043453;28;20209;-72
2022/06/20 02:48:11;;;;;;;9.73;5.60;;;;;;;14.77;100.00;100133.25;5042823;28;20582;-73
2022/06/20 02:50:44;;;;;;;10.00;6.00;;;;;;;14.63;100.00;100143.59;5042944;28;20215;-73
2022/06/20 02:53:16;;;;;;;9.47;5.90;;;;;;;14.69;100.00;100151.19;5042638;28;20255;-72
2022/06/20 02:55:42;;;;;;;10.47;5.70;;;;;;;14.72;100.00;100159.75;5039934;28;20220;-73
2022/06/20 02:58:16;;;;;;;9.70;5.47;;;;;;;14.73;100.00;100184.19;5039390;28;20202;-73
2022/06/20 03:00:48;;;;;;;8.43;6.00;;;;;;;14.64;100.00;100216.16;5040767;28;20215;-73
2022/06/20 03:03:21;;;;;;;9.87;6.00;;;;;;;14.59;100.00;100245.22;5040834;28;20227;-73
2022/06/20 03:05:48;;;;;;;9.30;5.73;;;;;;;14.50;100.00;100274.50;5039525;28;20590;-72
2022/06/20 03:08:16;;;;;;;10.73;5.47;;;;;;;14.43;100.00;100276.56;5040350;28;20203;-72
2022/06/20 03:10:46;;;;;;;11.40;5.73;;;;;;;14.39;100.00;100273.25;5040090;28;20935;-73
2022/06/20 03:13:13;;;;;;;8.80;5.93;;;;;;;14.44;100.00;100322.88;5041716;28;20237;-73
2022/06/20 03:15:43;;;;;;;8.70;5.50;;;;;;;14.40;100.00;100329.16;5038208;28;20474;-73
2022/06/20 03:18:13;;;;;;;9.67;5.87;;;;;;;14.31;100.00;100272.75;5043122;28;20572;-73
2022/06/20 03:20:41;;;;;;;9.50;5.80;;;;;;;14.18;100.00;100254.13;5041648;28;20216;-73
2022/06/20 03:23:14;;;;;;;8.80;5.30;;;;;;;14.18;100.00;100267.22;5040488;28;20214;-73
2022/06/20 03:25:41;;;;;;;9.37;5.70;;;;;;;14.14;100.00;100285.78;5042315;28;20551;-73
2022/06/20 03:28:13;;;;;;;8.07;5.07;;;;;;;14.08;100.00;100281.69;5042556;28;20218;-73
2022/06/20 03:30:39;;;;;;;7.50;4.63;;;;;;;14.02;100.00;100253.16;5039881;28;20199;-73
2022/06/20 03:33:11;;;;;;;7.67;4.10;;;;;;;14.01;100.00;100272.41;5052845;22;20241;-73
2022/06/20 03:35:39;;;;;;;5.57;4.17;;;;;;;14.00;100.00;100262.81;5043371;28;20233;-71
2022/06/20 03:38:09;;;;;;;8.73;4.63;;;;;;;13.86;100.00;100315.91;5043930;28;20648;-71
2022/06/20 03:40:39;;;;;;;6.30;4.70;;;;;;;13.94;100.00;100320.78;5044461;28;20193;-71
2022/06/20 03:43:07;;;;;;;6.93;4.30;;;;;;;13.90;100.00;100293.88;5056935;28;20214;-71
2022/06/20 03:45:37;;;;;;;7.70;4.33;;;;;;;13.90;100.00;100290.41;5060963;28;20222;-71
2022/06/20 03:48:09;;;;;;;7.57;4.50;;;;;;;13.91;100.00;100292.97;5062190;28;20202;-71
2022/06/20 03:50:38;;;;;;;6.67;4.40;;;;;;;14.12;100.00;100303.38;5059074;28;20203;-70
2022/06/20 03:53:11;;;;;;;12.20;5.17;;;;;;;13.89;100.00;100288.69;5062002;28;20593;-71
2022/06/20 03:55:44;;;;;;;11.17;4.90;;;;;;;13.77;100.00;100263.88;5060525;28;20279;-71
2022/06/20 03:58:17;;;;;;;8.20;4.70;;;;;;;13.81;100.00;100240.09;5059581;28;20214;-71
2022/06/20 04:00:50;;;;;;;6.77;4.67;;;;;;;13.78;100.00;100242.00;5059276;28;20198;-71
2022/06/20 04:03:24;;;;;;;9.43;4.73;;;;;;;13.78;100.00;100247.25;5056268;28;20222;-71
2022/06/20 04:05:56;;;;;;;10.37;4.67;;;;;;;13.82;100.00;100246.19;5060761;28;20561;-71
2022/06/20 04:10:57;;;;;;;6.23;4.20;;;;;;;13.96;100.00;100251.63;5063709;28;20203;-71
2022/06/20 04:11:18;;;;;;;6.77;4.17;;;;;;;13.95;100.00;100226.38;5060130;28;20324;-71
2022/06/20 04:13:55;;;;;;;8.90;4.37;;;;;;;13.96;100.00;100196.59;5056894;28;20272;-71
2022/06/20 04:16:26;;;;;;;8.17;3.90;;;;;;;13.92;100.00;100183.72;5058960;28;20226;-71
2022/06/20 04:19:01;;;;;;;6.80;3.80;;;;;;;13.98;100.00;100163.34;5061050;28;20214;-71
2022/06/20 04:21:33;;;;;;;7.53;3.97;;;;;;;13.92;100.00;100150.50;5061798;28;20202;-71
2022/06/20 04:24:07;;;;;;;6.83;4.40;;;;;;;13.95;100.00;100144.28;5064876;28;20226;-71
2022/06/20 04:26:40;;;;;;;6.10;3.67;;;;;;;14.12;100.00;100135.59;5061438;28;20687;-71
2022/06/20 04:29:14;;;;;;;5.30;3.73;;;;;;;14.22;100.00;100136.00;5056135;28;20206;-71
2022/06/20 04:31:48;;;;;;;7.73;4.20;;;;;;;14.19;100.00;100116.00;5058716;28;20197;-71
2022/06/20 04:34:20;;;;;;;6.23;4.00;;;;;;;14.32;100.00;100092.69;5054782;28;20213;-71
2022/06/20 04:36:53;;;;;;;7.83;4.60;;;;;;;14.44;100.00;100086.81;5056106;28;20209;-71
2022/06/20 04:39:25;;;;;;;5.57;3.80;;;;;;;14.38;100.00;100079.25;5055025;28;20213;-71
2022/06/20 04:41:57;;;;;;;5.40;4.00;;;;;;;14.37;100.00;100073.16;5058459;28;20579;-71
2022/06/20 04:44:31;;;;;;;7.37;3.93;;;;;;;14.40;100.00;100066.88;5053784;28;20213;-71
2022/06/20 04:47:10;;;;;;;6.03;4.47;;;;;;;14.57;100.00;100085.25;5057866;28;20198;-71
2022/06/20 04:49:38;;;;;;;7.07;4.73;;;;;;;14.61;100.00;100098.25;5061381;28;20226;-71
2022/06/20 04:52:10;;;;;;;5.30;4.13;;;;;;;14.75;100.00;100095.75;5053268;28;20241;-71
2022/06/20 04:54:39;;;;;;;8.17;4.00;;;;;;;14.88;100.00;100090.69;5057273;28;20217;-71
2022/06/20 04:57:05;;;;;;;5.70;3.80;;;;;;;14.84;100.00;100108.38;5052018;28;20203;-71
2022/06/20 04:59:33;;;;;;;4.77;3.53;;;;;;;14.83;100.00;100108.47;5058059;28;20381;-71
2022/06/20 05:02:05;;;;;;;5.50;3.40;;;;;;;14.96;100.00;100126.13;5056924;28;20240;-71
2022/06/20 05:04:37;;;;;;;5.80;3.27;;;;;;;14.96;100.00;100134.00;5058696;28;20440;-71
2022/06/20 05:07:07;;;;;;;5.10;3.50;;;;;;;15.06;100.00;100126.50;5054665;28;20652;-71
2022/06/20 05:09:40;;;;;;;3.50;3.20;;;;;;;15.10;100.00;100114.91;5054273;28;20199;-71
2022/06/20 05:12:14;;;;;;;4.17;3.60;;;;;;;15.15;100.00;100112.88;5054067;28;20235;-71
2022/06/20 05:14:48;;;;;;;6.10;3.63;;;;;;;15.33;100.00;100108.41;5054728;28;20300;-72
2022/06/20 05:17:20;;;;;;;5.53;3.57;;;;;;;15.45;100.00;100116.56;5054459;28;20205;-71
2022/06/20 05:19:49;;;;;;;4.73;3.90;;;;;;;15.55;100.00;100130.03;5063026;28;20682;-71
2022/06/20 05:22:20;;;;;;;4.30;3.37;;;;;;;15.74;100.00;100140.38;5056428;28;20216;-71
2022/06/20 05:24:49;;;;;;;6.37;3.80;;;;;;;15.60;100.00;100128.00;5059105;28;20199;-71
2022/06/20 05:27:19;;;;;;;4.90;3.73;;;;;;;15.65;100.00;100121.56;5059834;28;20201;-71
2022/06/20 05:29:47;;;;;;;4.53;3.60;;;;;;;15.78;100.00;100115.69;5055652;28;20903;-71
2022/06/20 05:32:21;;;;;;;6.10;3.43;;;;;;;16.17;100.00;100094.16;5053065;28;20229;-71
2022/06/20 05:34:54;;;;;;;6.60;4.33;;;;;;;16.46;100.00;100095.09;5058010;28;20315;-71
2022/06/20 05:37:27;;;;;;;5.27;3.90;;;;;;;16.61;100.00;100103.00;5057631;28;20205;-71
2022/06/20 05:40:00;;;;;;;4.80;3.77;;;;;;;16.61;100.00;100100.38;5056158;28;20209;-71
2022/06/20 05:42:27;;;;;;;5.23;3.80;;;;;;;16.57;100.00;100089.19;5059688;28;20214;-71
2022/06/20 05:44:53;;;;;;;6.10;4.10;;;;;;;16.68;100.00;100088.53;5053209;28;20194;-71
2022/06/20 05:47:23;;;;;;;5.13;3.10;;;;;;;16.56;100.00;100074.31;5058260;28;20213;-71
2022/06/20 05:49:53;;;;;;;3.50;3.00;;;;;;;16.43;100.00;100079.47;5057178;28;20206;-71
2022/06/20 05:52:30;;;;;;;4.33;2.97;;;;;;;16.51;100.00;100070.28;5057194;28;20214;-71
2022/06/20 05:55:10;;;;;;;3.57;2.67;;;;;;;16.48;100.00;100073.94;5056373;28;20276;-71
2022/06/20 05:57:40;;;;;;;3.17;2.73;;;;;;;16.51;100.00;100073.75;5057870;28;20209;-72
2022/06/20 06:00:16;;;;;;;3.90;2.60;;;;;;;16.51;100.00;100072.91;5058308;28;20536;-71
2022/06/20 06:02:50;;;;;;;5.40;2.80;;;;;;;16.52;100.00;100069.34;5055536;28;20225;-72
2022/06/20 06:05:20;;;;;;;3.77;3.20;;;;;;;16.63;100.00;100066.91;5057806;28;20576;-71
2022/06/20 06:07:53;;;;;;;3.37;2.70;;;;;;;16.73;100.00;100070.69;5059202;28;20225;-71
2022/06/20 06:10:38;;;;;;;3.53;3.00;;;;;;;16.83;100.00;100086.75;5058601;28;20213;-72
2022/06/20 06:13:21;;;;;;;3.87;2.97;;;;;;;16.98;100.00;100090.28;5061387;28;20237;-72
2022/06/20 06:18:56;;;;;;;4.13;3.10;;;;;;;17.13;98.06;100154.31;5032028;28;20663;-71
2022/06/20 06:21:22;;;;;;;4.33;3.60;;;;;;;16.91;99.48;100220.63;5058750;28;20648;-72
2022/06/20 06:23:49;;;;;;;6.27;4.57;;;;;;;16.71;100.00;100277.00;5054052;28;20226;-72
2022/06/20 06:26:18;;;;;;;6.30;4.70;;;;;;;16.40;100.00;100361.16;5058365;28;20195;-72
2022/06/20 06:28:46;;;;;;;4.63;4.23;;;;;;;16.03;100.00;100468.31;5063857;28;20709;-71
2022/06/20 06:31:19;;;;;;;4.63;3.73;;;;;;;15.71;100.00;100507.56;5055074;28;20203;-71
2022/06/20 06:33:50;;;;;;;11.80;4.83;;;;;;;15.44;100.00;100508.91;5053647;28;20234;-71
2022/06/20 06:36:23;;;;;;;6.87;4.63;;;;;;;15.15;100.00;100496.25;5058096;28;20235;-71
2022/06/20 06:38:55;;;;;;;7.93;4.40;;;;;;;14.94;100.00;100471.00;5052354;28;20198;-72
2022/06/20 06:41:27;;;;;;;5.90;4.57;;;;;;;14.71;100.00;100483.41;5060467;28;20210;-72
2022/06/20 06:43:56;;;;;;;8.17;4.47;;;;;;;14.49;100.00;100396.06;5060810;28;20226;-72
2022/06/20 06:46:27;;;;;;;11.07;4.67;;;;;;;14.18;100.00;100300.47;5053554;28;20221;-74
2022/06/20 06:49:05;;;;;;;6.97;4.50;;;;;;;13.97;100.00;100257.75;5053730;28;20740;-74
2022/06/20 06:51:38;;;;;;;7.27;4.03;;;;;;;13.76;100.00;100228.13;5056146;28;20582;-75
2022/06/20 06:54:12;;;;;;;5.43;3.83;;;;;;;13.57;100.00;100236.81;5054353;28;20638;-75
2022/06/20 06:56:45;;;;;;;6.87;3.93;;;;;;;13.55;100.00;100193.28;5053917;28;20711;-75
2022/06/20 06:59:16;;;;;;;4.70;3.67;;;;;;;13.44;100.00;100170.22;5060580;28;20669;-74
2022/06/20 07:01:47;;;;;;;7.27;3.90;;;;;;;13.31;100.00;100156.78;5062160;28;20205;-74
2022/06/20 07:04:19;;;;;;;6.77;3.50;;;;;;;13.27;100.00;100156.06;5056940;28;20201;-74
2022/06/20 07:06:50;;;;;;;8.33;3.70;;;;;;;13.29;100.00;100153.38;5061098;28;20202;-75
2022/06/20 07:09:22;;;;;;;7.27;3.93;;;;;;;13.23;100.00;100128.31;5056014;28;20214;-75
2022/06/20 07:11:59;;;;;;;9.03;4.03;;;;;;;13.33;100.00;100115.72;5053692;28;20201;-74
2022/06/20 07:14:25;;;;;;;6.47;3.80;;;;;;;13.35;100.00;100116.50;5058821;28;20202;-74
2022/06/20 07:16:56;;;;;;;5.13;3.33;;;;;;;13.34;100.00;100122.63;5058043;28;20234;-74
2022/06/20 07:19:25;;;;;;;5.27;3.33;;;;;;;13.32;100.00;100134.09;5057736;28;20298;-74
2022/06/20 07:21:52;;;;;;;5.73;3.27;;;;;;;13.30;100.00;100109.72;5056364;28;20194;-74
2022/06/20 07:24:22;;;;;;;5.27;3.17;;;;;;;13.34;100.00;100120.00;5061552;28;20197;-74
2022/06/20 07:26:57;;;;;;;5.13;3.97;;;;;;;13.36;100.00;100146.97;5056352;28;20196;-74
2022/06/20 07:29:27;;;;;;;5.33;3.77;;;;;;;13.37;100.00;100194.97;5057629;28;20217;-73
2022/06/20 07:31:58;;;;;;;4.87;3.50;;;;;;;13.38;100.00;100280.44;5054629;28;20203;-74
2022/06/20 07:34:30;;;;;;;4.07;3.37;;;;;;;13.39;100.00;100350.25;5057234;28;20214;-73
2022/06/20 07:37:03;;;;;;;4.70;3.63;;;;;;;13.37;100.00;100336.38;5060764;28;20694;-73
2022/06/20 07:39:35;;;;;;;6.00;3.70;;;;;;;13.46;100.00;100259.19;5049866;28;20906;-73
2022/06/20 07:42:08;;;;;;;8.40;3.83;;;;;;;13.50;100.00;100279.91;5051053;28;20219;-74
2022/06/20 07:44:39;;;;;;;6.80;4.13;;;;;;;13.55;100.00;100271.88;5059018;28;20604;-74
2022/06/20 07:47:11;;;;;;;6.70;4.03;;;;;;;13.36;100.00;100220.28;5056391;28;20208;-74
2022/06/20 07:49:40;;;;;;;5.33;3.80;;;;;;;13.31;100.00;100206.53;5055994;28;20199;-74
2022/06/20 07:52:11;;;;;;;6.53;3.93;;;;;;;13.36;100.00;100164.47;5053230;28;20228;-74
2022/06/20 07:54:41;;;;;;;6.40;3.60;;;;;;;13.49;100.00;100168.22;5057228;28;20208;-74
2022/06/20 07:57:13;;;;;;;5.10;3.80;;;;;;;13.71;100.00;100144.50;5056713;28;20236;-75
2022/06/20 07:59:45;;;;;;;4.33;3.20;;;;;;;13.56;100.00;100071.88;5058604;28;20202;-75
2022/06/20 08:02:20;;;;;;;13.70;3.40;;;;;;;13.56;100.00;100059.66;5053325;28;20322;-74
2022/06/20 08:04:50;;;;;;;4.33;2.90;;;;;;;13.51;100.00;100092.19;5058513;28;20201;-74
2022/06/20 08:07:22;;;;;;;4.77;3.50;;;;;;;13.49;100.00;100091.41;5058008;28;20204;-74
2022/06/20 08:09:54;;;;;;;4.73;3.43;;;;;;;13.56;100.00;100066.63;5054771;28;20208;-74
2022/06/20 08:12:28;;;;;;;6.97;3.93;;;;;;;13.64;100.00;100075.81;5054387;28;20229;-74
2022/06/20 08:15:00;;;;;;;4.00;2.93;;;;;;;13.77;100.00;100081.34;5061380;28;20668;-74
2022/06/20 08:17:29;;;;;;;4.53;3.50;;;;;;;13.79;100.00;100062.91;5057622;28;20222;-75
2022/06/20 08:19:56;;;;;;;5.17;3.30;;;;;;;13.90;100.00;100050.16;5055931;28;20255;-74
2022/06/20 08:22:27;;;;;;;5.50;3.83;;;;;;;14.10;100.00;100069.28;5058799;28;20229;-74
2022/06/20 08:24:56;;;;;;;5.00;4.00;;;;;;;14.12;100.00;100068.28;5059254;28;20201;-75
2022/06/20 08:27:33;;;;;;;4.43;3.50;;;;;;;14.12;100.00;100064.81;5063326;28;20198;-73
2022/06/20 08:30:07;;;;;;;4.10;3.70;;;;;;;14.12;100.00;100067.44;5059578;28;20211;-73
2022/06/20 08:32:40;;;;;;;3.67;3.17;;;;;;;14.14;100.00;100060.34;5054905;28;20230;-75
2022/06/20 08:35:17;;;;;;;3.43;3.00;;;;;;;14.09;100.00;100078.06;5060560;28;20588;-74
2022/06/20 08:37:49;;;;;;;3.60;3.00;;;;;;;14.07;100.00;100154.19;5057864;28;20194;-74
2022/06/20 08:40:36;;;;;;;3.37;2.57;;;;;;;13.96;100.00;100274.38;5057436;28;20211;-74
2022/06/20 08:43:30;;;;;;;2.83;2.53;;;;;;;13.89;100.00;100383.03;5063221;28;20227;-73
2022/06/20 08:46:36;;;;;;;3.23;2.63;;;;;;;13.76;100.00;100335.56;5061161;28;20207;-73
2022/06/20 08:49:31;;;;;;;3.03;2.60;;;;;;;13.86;100.00;100208.47;5054197;28;20512;-73
2022/06/20 08:52:32;;;;;;;4.73;2.73;;;;;;;13.79;100.00;100145.00;5061280;28;20201;-75
2022/06/20 08:55:28;;;;;;;2.93;2.63;;;;;;;13.69;100.00;100158.59;5027877;28;20284;-75
2022/06/20 08:58:02;;;;;;;4.00;2.77;;;;;;;13.69;100.00;100141.13;5061793;28;20684;-74
2022/06/20 09:00:40;;;;;;;3.43;2.67;;;;;;;13.89;100.00;100134.06;5063883;28;20572;-75
2022/06/20 09:03:43;;;;;;;3.60;2.93;;;;;;;14.10;100.00;100132.19;5059429;28;20224;-74
2022/06/20 09:06:31;;;;;;;4.57;3.70;;;;;;;14.03;100.00;100149.97;5059565;28;20198;-74
2022/06/20 09:09:25;;;;;;;4.33;3.20;;;;;;;14.02;100.00;100156.16;5059755;28;20206;-74
2022/06/20 09:12:10;;;;;;;3.67;3.03;;;;;;;14.01;100.00;100157.91;5023423;28;20201;-74
2022/06/20 09:14:57;;;;;;;4.63;3.30;;;;;;;13.94;100.00;100156.50;5059606;28;20429;-74
2022/06/20 09:17:35;;;;;;;3.67;3.20;;;;;;;14.08;100.00;100139.28;5058867;28;20632;-74
2022/06/20 09:20:15;;;;;;;4.13;3.67;;;;;;;14.07;100.00;100150.69;5061642;28;20216;-74
2022/06/20 09:23:00;;;;;;;4.13;3.57;;;;;;;14.24;100.00;100144.63;5055070;28;20248;-74
2022/06/20 09:25:38;;;;;;;5.33;4.17;;;;;;;14.66;100.00;100164.44;5058541;28;20209;-76
2022/06/20 09:28:20;;;;;;;5.03;3.77;;;;;;;14.70;100.00;100185.19;5058745;28;20202;-75
2022/06/20 09:30:57;;;;;;;4.60;4.07;;;;;;;14.77;100.00;100183.97;5054235;28;20342;-74
2022/06/20 09:33:52;;;;;;;6.07;4.43;;;;;;;14.69;100.00;100193.16;5058123;28;20226;-74
2022/06/20 09:36:32;;;;;;;4.40;4.00;;;;;;;14.78;100.00;100197.94;5057363;28;20217;-74
2022/06/20 09:39:32;;;;;;;4.13;3.67;;;;;;;14.73;100.00;100199.94;5058471;28;20621;-75
2022/06/20 09:42:07;;;;;;;5.23;3.83;;;;;;;14.51;100.00;100190.50;5059659;28;20200;-74
2022/06/20 09:44:44;;;;;;;3.80;3.20;;;;;;;14.52;100.00;100204.44;5057904;28;20297;-73
2022/06/20 09:47:31;;;;;;;3.27;2.97;;;;;;;14.45;100.00;100205.69;5061761;28;20199;-74
2022/06/20 09:50:14;;;;;;;3.07;2.77;;;;;;;14.30;100.00;100223.00;5061332;28;20210;-73
2022/06/20 09:53:05;;;;;;;2.93;2.47;;;;;;;14.17;100.00;100230.59;5058296;28;20233;-74
2022/06/20 09:55:38;;;;;;;3.70;2.80;;;;;;;14.07;100.00;100231.94;5060146;28;20579;-74
2022/06/20 09:58:11;;;;;;;2.33;2.13;;;;;;;13.85;100.00;100235.56;5057827;28;20225;-74
2022/06/20 10:00:46;;;;;;;2.60;2.30;;;;;;;13.86;100.00;100233.78;5060401;28;20195;-73
2022/06/20 10:03:20;;;;;;;2.63;2.43;;;;;;;13.81;100.00;100234.03;5058287;28;20224;-74
2022/06/20 10:05:53;;;;;;;2.50;2.20;;;;;;;13.79;100.00;100234.09;5057373;28;20677;-73
2022/06/20 10:08:35;;;;;;;2.60;2.30;;;;;;;13.68;100.00;100246.81;5058260;28;20592;-73
2022/06/20 10:11:09;;;;;;;3.40;2.60;;;;;;;13.68;100.00;100240.72;5064212;28;20576;-73
2022/06/20 10:13:44;;;;;;;2.50;2.30;;;;;;;13.62;100.00;100247.94;5057006;28;20287;-73
2022/06/20 10:16:16;;;;;;;2.40;2.20;;;;;;;13.71;100.00;100258.94;5062880;28;20710;-73
2022/06/20 10:18:50;;;;;;;2.97;2.50;;;;;;;13.73;100.00;100260.56;5061556;28;20244;-74
2022/06/20 10:21:24;;;;;;;2.50;2.30;;;;;;;13.70;100.00;100247.63;5060766;28;20217;-74
2022/06/20 10:24:35;;;;;;;2.87;2.43;;;;;;;13.78;100.00;100253.34;5063491;28;20221;-73
2022/06/20 10:27:24;;;;;;;2.67;2.47;;;;;;;13.75;100.00;100260.47;4984667;28;20217;-74
2022/06/20 10:30:02;;;;;;;3.00;2.30;;;;;;;13.71;100.00;100256.31;5059550;28;20207;-73
2022/06/20 10:32:43;;;;;;;3.13;2.80;;;;;;;13.80;100.00;100256.72;5058584;28;20231;-73
2022/06/20 10:35:15;;;;;;;2.60;2.40;;;;;;;13.74;100.00;100259.66;5061472;28;20210;-75
2022/06/20 10:37:57;;;;;;;4.13;2.47;;;;;;;13.77;100.00;100264.75;5055219;28;20232;-74
2022/06/20 10:40:33;;;;;;;3.07;2.73;;;;;;;13.72;100.00;100258.00;5061472;28;20647;-73
2022/06/20 10:43:06;;;;;;;3.20;2.70;;;;;;;13.77;100.00;100263.88;5057152;28;20225;-73
2022/06/20 10:45:42;;;;;;;3.33;3.00;;;;;;;13.68;100.00;100253.81;5058068;28;20203;-74
2022/06/20 10:48:39;;;;;;;4.53;2.93;;;;;;;13.61;100.00;100261.09;5059455;28;20213;-73
2022/06/20 10:51:11;;;;;;;4.53;3.00;;;;;;;13.60;100.00;100262.03;5059562;28;20204;-74
2022/06/20 10:53:52;;;;;;;4.00;2.90;;;;;;;13.64;100.00;100274.06;5060138;28;20221;-73
2022/06/20 10:56:26;;;;;;;3.37;3.00;;;;;;;13.76;100.00;100284.00;5057697;28;20227;-73
2022/06/20 10:59:04;;;;;;;4.80;2.93;;;;;;;13.72;100.00;100278.94;5058673;28;20196;-73
2022/06/20 11:01:39;;;;;;;3.77;3.33;;;;;;;13.71;100.00;100288.59;5061217;28;20825;-74
2022/06/20 11:04:24;;;;;;;3.53;3.17;;;;;;;13.67;100.00;100307.13;5058501;28;20232;-74
2022/06/20 11:07:13;;;;;;;3.27;2.93;;;;;;;13.73;100.00;100309.50;5057040;28;20286;-73
2022/06/20 11:09:49;;;;;;;4.93;3.10;;;;;;;13.66;100.00;100294.97;5059338;28;20590;-72
2022/06/20 11:12:26;;;;;;;5.10;3.17;;;;;;;13.63;100.00;100304.66;5059855;28;20254;-74
2022/06/20 11:14:58;;;;;;;3.37;3.00;;;;;;;13.74;100.00;100298.94;5056721;28;20480;-74
2022/06/20 11:17:32;;;;;;;4.33;3.30;;;;;;;13.75;100.00;100266.56;5061226;28;20597;-73
2022/06/20 11:20:12;;;;;;;4.07;3.00;;;;;;;13.64;100.00;100263.59;5060997;28;20197;-73
2022/06/20 11:22:41;;;;;;;4.43;3.60;;;;;;;13.56;100.00;100265.69;5055016;28;20274;-73
2022/06/20 11:25:20;;;;;;;4.73;3.30;;;;;;;13.60;100.00;100283.84;5058344;28;20240;-75
2022/06/20 11:28:00;;;;;;;4.07;3.07;;;;;;;13.63;100.00;100290.69;5061271;28;20572;-74
2022/06/20 11:30:36;;;;;;;3.30;3.00;;;;;;;13.57;100.00;100299.69;5053595;28;20576;-73
2022/06/20 11:33:21;;;;;;;3.27;2.73;;;;;;;13.46;100.00;100304.53;5061415;28;20263;-73
2022/06/20 11:35:57;;;;;;;5.30;3.37;;;;;;;13.44;100.00;100322.94;5062105;28;20205;-74
2022/06/20 11:38:39;;;;;;;5.73;3.47;;;;;;;13.55;100.00;100293.66;5058788;28;20747;-74
2022/06/20 11:41:12;;;;;;;3.63;2.90;;;;;;;13.69;100.00;100316.63;5061150;28;20208;-73
2022/06/20 11:44:07;;;;;;;4.53;3.40;;;;;;;13.51;100.00;100326.16;5062640;28;20615;-73
2022/06/20 11:46:54;;;;;;;3.83;3.47;;;;;;;13.41;100.00;100333.53;5051772;28;20251;-73
2022/06/20 11:49:37;;;;;;;4.70;3.30;;;;;;;13.40;100.00;100334.47;5057638;28;20567;-74
2022/06/20 11:52:11;;;;;;;5.30;3.57;;;;;;;13.41;100.00;100357.09;5058298;28;20224;-74
2022/06/20 11:54:45;;;;;;;4.33;3.70;;;;;;;13.37;100.00;100368.63;5055642;28;20262;-73